createdAt,value
2023-04-18T00:00:00.703Z,18.49
2023-04-18T00:00:14.696Z,18.47
2023-04-18T00:00:28.692Z,18.49
2023-04-18T00:00:42.696Z,18.49
2023-04-18T00:01:10.663Z,18.49
2023-04-18T00:01:24.656Z,18.49
2023-04-18T00:01:38.757Z,18.49
2023-04-18T00:01:52.857Z,18.49
2023-04-18T00:02:21.778Z,18.49
2023-04-18T00:02:36.010Z,18.47
2023-04-18T00:02:50.399Z,18.49
2023-04-18T00:03:05.102Z,18.49
2023-04-18T00:03:33.507Z,18.47
2023-04-18T00:03:47.861Z,18.49
2023-04-18T00:04:02.184Z,18.49
2023-04-18T00:04:16.589Z,18.49
2023-04-18T00:04:45.021Z,18.47
2023-04-18T00:04:59.089Z,18.49
2023-04-18T00:05:13.266Z,18.49
2023-04-18T00:05:27.305Z,18.49
2023-04-18T00:05:55.300Z,18.49
2023-04-18T00:06:09.318Z,18.50
2023-04-18T00:06:23.392Z,18.50
2023-04-18T00:06:37.397Z,18.50
2023-04-18T00:07:05.377Z,18.49
2023-04-18T00:07:19.377Z,18.49
2023-04-18T00:07:33.375Z,18.50
2023-04-18T00:07:47.398Z,18.50
2023-04-18T00:08:15.376Z,18.49
2023-04-18T00:08:29.380Z,18.49
2023-04-18T00:08:43.394Z,18.49
2023-04-18T00:08:57.419Z,18.49
2023-04-18T00:09:25.463Z,18.49
2023-04-18T00:09:39.553Z,18.49
2023-04-18T00:09:53.557Z,18.50
2023-04-18T00:10:07.555Z,18.47
2023-04-18T00:10:35.547Z,18.47
2023-04-18T00:10:49.545Z,18.50
2023-04-18T00:11:03.553Z,18.49
2023-04-18T00:11:17.555Z,18.49
2023-04-18T00:11:31.551Z,18.50
2023-04-18T00:11:45.543Z,18.50
2023-04-18T00:11:59.556Z,18.49
2023-04-18T00:12:13.552Z,18.50
2023-04-18T00:12:27.551Z,18.49
2023-04-18T00:12:55.544Z,18.46
2023-04-18T00:13:09.536Z,18.47
2023-04-18T00:13:23.543Z,18.49
2023-04-18T00:13:37.542Z,18.47
2023-04-18T00:14:05.536Z,18.49
2023-04-18T00:14:19.536Z,18.47
2023-04-18T00:14:33.528Z,18.49
2023-04-18T00:14:47.527Z,18.47
2023-04-18T00:15:15.509Z,18.49
2023-04-18T00:15:29.539Z,18.47
2023-04-18T00:15:43.562Z,18.46
2023-04-18T00:15:57.550Z,18.44
2023-04-18T00:16:25.625Z,18.46
2023-04-18T00:16:39.725Z,18.46
2023-04-18T00:16:53.774Z,18.47
2023-04-18T00:17:07.841Z,18.46
2023-04-18T00:17:35.874Z,18.46
2023-04-18T00:17:49.929Z,18.47
2023-04-18T00:18:04.043Z,18.46
2023-04-18T00:18:18.144Z,18.46
2023-04-18T00:18:46.107Z,18.46
2023-04-18T00:19:00.133Z,18.47
2023-04-18T00:19:14.131Z,18.46
2023-04-18T00:19:28.142Z,18.44
2023-04-18T00:19:56.140Z,18.44
2023-04-18T00:20:10.138Z,18.44
2023-04-18T00:20:24.148Z,18.44
2023-04-18T00:20:38.166Z,18.46
2023-04-18T00:21:06.117Z,18.47
2023-04-18T00:21:20.113Z,18.46
2023-04-18T00:21:34.112Z,18.47
2023-04-18T00:21:48.114Z,18.47
2023-04-18T00:22:16.112Z,18.49
2023-04-18T00:22:30.123Z,18.46
2023-04-18T00:22:44.120Z,18.47
2023-04-18T00:22:58.153Z,18.47
2023-04-18T00:23:26.121Z,18.47
2023-04-18T00:23:40.105Z,18.46
2023-04-18T00:23:54.114Z,18.44
2023-04-18T00:24:08.110Z,18.44
2023-04-18T00:24:36.093Z,18.46
2023-04-18T00:24:50.117Z,18.46
2023-04-18T00:25:04.114Z,18.44
2023-04-18T00:25:18.110Z,18.44
2023-04-18T00:25:46.107Z,18.46
2023-04-18T00:26:00.126Z,18.44
2023-04-18T00:26:14.129Z,18.43
2023-04-18T00:26:28.175Z,18.44
2023-04-18T00:26:56.173Z,18.44
2023-04-18T00:27:10.176Z,18.43
2023-04-18T00:27:24.174Z,18.43
2023-04-18T00:27:38.292Z,18.43
2023-04-18T00:28:06.280Z,18.40
2023-04-18T00:28:20.296Z,18.40
2023-04-18T00:28:34.290Z,18.40
2023-04-18T00:28:48.290Z,18.39
2023-04-18T00:29:16.260Z,18.40
2023-04-18T00:29:30.258Z,18.40
2023-04-18T00:29:44.265Z,18.40
2023-04-18T00:29:58.267Z,18.37
2023-04-18T00:30:26.275Z,18.42
2023-04-18T00:30:40.317Z,18.39
2023-04-18T00:30:54.359Z,18.40
2023-04-18T00:31:08.435Z,18.40
2023-04-18T00:31:36.498Z,18.39
2023-04-18T00:31:50.478Z,18.40
2023-04-18T00:32:04.475Z,18.40
2023-04-18T00:32:18.533Z,18.42
2023-04-18T00:32:46.550Z,18.40
2023-04-18T00:33:00.592Z,18.39
2023-04-18T00:33:14.598Z,18.43
2023-04-18T00:33:28.609Z,18.42
2023-04-18T00:33:56.589Z,18.42
2023-04-18T00:34:10.577Z,18.43
2023-04-18T00:34:24.576Z,18.42
2023-04-18T00:34:38.580Z,18.43
2023-04-18T00:35:06.609Z,18.43
2023-04-18T00:35:20.621Z,18.42
2023-04-18T00:35:34.617Z,18.43
2023-04-18T00:35:48.609Z,18.43
2023-04-18T00:36:16.578Z,18.42
2023-04-18T00:36:30.579Z,18.43
2023-04-18T00:36:44.576Z,18.42
2023-04-18T00:36:58.569Z,18.44
2023-04-18T00:37:26.546Z,18.44
2023-04-18T00:37:40.556Z,18.43
2023-04-18T00:37:54.595Z,18.44
2023-04-18T00:38:08.632Z,18.43
2023-04-18T00:38:36.642Z,18.42
2023-04-18T00:38:50.646Z,18.43
2023-04-18T00:39:04.674Z,18.43
2023-04-18T00:39:18.702Z,18.43
2023-04-18T00:39:46.792Z,18.43
2023-04-18T00:40:00.798Z,18.42
2023-04-18T00:40:14.794Z,18.42
2023-04-18T00:40:28.777Z,18.43
2023-04-18T00:40:56.743Z,18.42
2023-04-18T00:41:10.730Z,18.42
2023-04-18T00:41:24.730Z,18.42
2023-04-18T00:41:38.740Z,18.42
2023-04-18T00:42:06.692Z,18.42
2023-04-18T00:42:20.685Z,18.42
2023-04-18T00:42:34.669Z,18.42
2023-04-18T00:42:48.695Z,18.40
2023-04-18T00:43:16.668Z,18.40
2023-04-18T00:43:30.656Z,18.39
2023-04-18T00:43:44.638Z,18.39
2023-04-18T00:43:58.637Z,18.37
2023-04-18T00:44:26.606Z,18.39
2023-04-18T00:44:40.594Z,18.39
2023-04-18T00:44:54.586Z,18.39
2023-04-18T00:45:08.575Z,18.39
2023-04-18T00:45:36.562Z,18.39
2023-04-18T00:45:50.577Z,18.39
2023-04-18T00:46:04.668Z,18.39
2023-04-18T00:46:18.773Z,18.39
2023-04-18T00:46:46.769Z,18.39
2023-04-18T00:47:00.756Z,18.37
2023-04-18T00:47:14.742Z,18.37
2023-04-18T00:47:28.781Z,18.36
2023-04-18T00:47:56.876Z,18.36
2023-04-18T00:48:10.934Z,18.37
2023-04-18T00:48:24.925Z,18.37
2023-04-18T00:48:38.926Z,18.37
2023-04-18T00:49:06.895Z,18.36
2023-04-18T00:49:20.914Z,18.37
2023-04-18T00:49:34.914Z,18.37
2023-04-18T00:49:48.933Z,18.37
2023-04-18T00:50:16.918Z,18.37
2023-04-18T00:50:30.916Z,18.39
2023-04-18T00:50:44.920Z,18.37
2023-04-18T00:50:58.917Z,18.37
2023-04-18T00:51:26.884Z,18.39
2023-04-18T00:51:40.917Z,18.40
2023-04-18T00:51:54.910Z,18.37
2023-04-18T00:52:08.911Z,18.37
2023-04-18T00:52:36.957Z,18.37
2023-04-18T00:52:50.963Z,18.39
2023-04-18T00:53:04.951Z,18.37
2023-04-18T00:53:19.024Z,18.37
2023-04-18T00:53:46.998Z,18.36
2023-04-18T00:54:00.981Z,18.34
2023-04-18T00:54:15.313Z,18.36
2023-04-18T00:54:29.616Z,18.36
2023-04-18T00:54:57.598Z,18.36
2023-04-18T00:55:24.414Z,18.34
2023-04-18T00:55:38.427Z,18.34
2023-04-18T00:55:52.417Z,18.36
2023-04-18T00:56:06.427Z,18.34
2023-04-18T00:56:20.424Z,18.36
2023-04-18T00:56:34.429Z,18.36
2023-04-18T00:56:48.423Z,18.36
2023-04-18T00:57:02.448Z,18.33
2023-04-18T00:57:16.450Z,18.34
2023-04-18T00:57:44.415Z,18.34
2023-04-18T00:57:58.422Z,18.34
2023-04-18T00:58:12.406Z,18.34
2023-04-18T00:58:26.414Z,18.34
2023-04-18T00:58:54.418Z,18.34
2023-04-18T00:59:08.419Z,18.34
2023-04-18T00:59:22.424Z,18.33
2023-04-18T00:59:36.426Z,18.33
2023-04-18T01:00:04.408Z,18.34
2023-04-18T01:00:18.441Z,18.34
2023-04-18T01:00:32.433Z,18.33
2023-04-18T01:00:46.421Z,18.34
2023-04-18T01:01:14.407Z,18.33
2023-04-18T01:01:28.471Z,18.36
2023-04-18T01:01:42.559Z,18.34
2023-04-18T01:01:56.707Z,18.33
2023-04-18T01:02:24.921Z,18.33
2023-04-18T01:02:39.132Z,18.34
2023-04-18T01:02:53.443Z,18.31
2023-04-18T01:03:07.731Z,18.34
2023-04-18T01:03:36.054Z,18.34
2023-04-18T01:03:50.311Z,18.33
2023-04-18T01:04:04.436Z,18.36
2023-04-18T01:04:18.919Z,18.34
2023-04-18T01:04:47.246Z,18.33
2023-04-18T01:05:01.258Z,18.33
2023-04-18T01:05:15.260Z,18.34
2023-04-18T01:05:29.259Z,18.34
2023-04-18T01:05:57.233Z,18.36
2023-04-18T01:06:11.235Z,18.33
2023-04-18T01:06:25.234Z,18.34
2023-04-18T01:06:39.230Z,18.33
2023-04-18T01:07:07.222Z,18.33
2023-04-18T01:07:21.215Z,18.34
2023-04-18T01:07:35.218Z,18.34
2023-04-18T01:07:49.206Z,18.34
2023-04-18T01:08:17.177Z,18.34
2023-04-18T01:08:31.207Z,18.34
2023-04-18T01:08:45.192Z,18.34
2023-04-18T01:08:59.193Z,18.34
2023-04-18T01:09:27.179Z,18.33
2023-04-18T01:09:41.181Z,18.34
2023-04-18T01:09:55.189Z,18.34
2023-04-18T01:10:09.186Z,18.36
2023-04-18T01:10:37.185Z,18.34
2023-04-18T01:10:51.197Z,18.33
2023-04-18T01:11:05.189Z,18.31
2023-04-18T01:11:19.221Z,18.33
2023-04-18T01:11:47.209Z,18.33
2023-04-18T01:12:01.206Z,18.33
2023-04-18T01:12:15.214Z,18.33
2023-04-18T01:12:29.208Z,18.34
2023-04-18T01:12:57.170Z,18.31
2023-04-18T01:13:11.193Z,18.31
2023-04-18T01:13:25.185Z,18.33
2023-04-18T01:13:39.242Z,18.33
2023-04-18T01:14:07.226Z,18.33
2023-04-18T01:14:21.233Z,18.34
2023-04-18T01:14:35.246Z,18.33
2023-04-18T01:14:49.248Z,18.33
2023-04-18T01:15:17.279Z,18.34
2023-04-18T01:15:31.288Z,18.31
2023-04-18T01:15:45.302Z,18.34
2023-04-18T01:15:59.343Z,18.31
2023-04-18T01:16:27.401Z,18.33
2023-04-18T01:16:41.440Z,18.34
2023-04-18T01:16:55.496Z,18.31
2023-04-18T01:17:09.486Z,18.31
2023-04-18T01:17:37.515Z,18.31
2023-04-18T01:17:51.562Z,18.31
2023-04-18T01:18:05.573Z,18.29
2023-04-18T01:18:19.578Z,18.29
2023-04-18T01:18:47.570Z,18.28
2023-04-18T01:19:01.582Z,18.31
2023-04-18T01:19:15.598Z,18.28
2023-04-18T01:19:29.605Z,18.31
2023-04-18T01:19:57.580Z,18.31
2023-04-18T01:20:11.591Z,18.33
2023-04-18T01:20:25.608Z,18.31
2023-04-18T01:20:39.603Z,18.31
2023-04-18T01:21:07.573Z,18.31
2023-04-18T01:21:21.568Z,18.31
2023-04-18T01:21:36.183Z,18.33
2023-04-18T01:21:50.214Z,18.33
2023-04-18T01:22:04.198Z,18.33
2023-04-18T01:22:18.210Z,18.33
2023-04-18T01:22:32.215Z,18.33
2023-04-18T01:22:46.212Z,18.31
2023-04-18T01:23:00.208Z,18.31
2023-04-18T01:23:28.182Z,18.31
2023-04-18T01:23:42.204Z,18.34
2023-04-18T01:23:56.206Z,18.31
2023-04-18T01:24:10.304Z,18.31
2023-04-18T01:24:38.387Z,18.31
2023-04-18T01:24:52.391Z,18.31
2023-04-18T01:25:06.391Z,18.31
2023-04-18T01:25:20.383Z,18.29
2023-04-18T01:25:48.405Z,18.29
2023-04-18T01:26:02.426Z,18.33
2023-04-18T01:26:16.451Z,18.31
2023-04-18T01:26:30.476Z,18.33
2023-04-18T01:26:58.453Z,18.33
2023-04-18T01:27:12.468Z,18.29
2023-04-18T01:27:26.481Z,18.33
2023-04-18T01:27:40.484Z,18.31
2023-04-18T01:28:08.464Z,18.33
2023-04-18T01:28:22.486Z,18.33
2023-04-18T01:28:36.493Z,18.31
2023-04-18T01:28:50.512Z,18.31
2023-04-18T01:29:18.480Z,18.31
2023-04-18T01:29:32.491Z,18.31
2023-04-18T01:29:46.479Z,18.31
2023-04-18T01:30:00.479Z,18.31
2023-04-18T01:30:28.478Z,18.31
2023-04-18T01:30:42.474Z,18.31
2023-04-18T01:30:56.504Z,18.33
2023-04-18T01:31:10.570Z,18.31
2023-04-18T01:31:38.745Z,18.31
2023-04-18T01:31:52.854Z,18.31
2023-04-18T01:32:06.853Z,18.29
2023-04-18T01:32:20.995Z,18.33
2023-04-18T01:32:49.065Z,18.31
2023-04-18T01:33:03.140Z,18.33
2023-04-18T01:33:17.165Z,18.31
2023-04-18T01:33:31.162Z,18.31
2023-04-18T01:33:59.197Z,18.31
2023-04-18T01:34:13.344Z,18.31
2023-04-18T01:34:27.509Z,18.31
2023-04-18T01:34:41.531Z,18.31
2023-04-18T01:35:09.539Z,18.28
2023-04-18T01:35:23.562Z,18.29
2023-04-18T01:35:37.560Z,18.29
2023-04-18T01:35:51.559Z,18.28
2023-04-18T01:36:19.511Z,18.28
2023-04-18T01:36:33.526Z,18.28
2023-04-18T01:36:47.558Z,18.29
2023-04-18T01:37:01.565Z,18.28
2023-04-18T01:37:29.562Z,18.29
2023-04-18T01:37:43.560Z,18.29
2023-04-18T01:37:57.558Z,18.29
2023-04-18T01:38:11.551Z,18.28
2023-04-18T01:38:53.554Z,18.29
2023-04-18T01:39:07.559Z,18.28
2023-04-18T01:39:21.556Z,18.29
2023-04-18T01:39:35.540Z,18.28
2023-04-18T01:40:03.546Z,18.28
2023-04-18T01:40:17.543Z,18.25
2023-04-18T01:40:31.539Z,18.27
2023-04-18T01:40:45.543Z,18.27
2023-04-18T01:41:13.548Z,18.28
2023-04-18T01:41:27.540Z,18.28
2023-04-18T01:41:41.539Z,18.25
2023-04-18T01:41:55.524Z,18.27
2023-04-18T01:42:09.563Z,18.27
2023-04-18T01:42:23.552Z,18.25
2023-04-18T01:42:37.568Z,18.27
2023-04-18T01:42:51.551Z,18.28
2023-04-18T01:43:05.557Z,18.27
2023-04-18T01:43:33.539Z,18.28
2023-04-18T01:43:47.538Z,18.27
2023-04-18T01:44:01.614Z,18.28
2023-04-18T01:44:16.044Z,18.28
2023-04-18T01:44:44.208Z,18.28
2023-04-18T01:44:58.190Z,18.28
2023-04-18T01:45:12.209Z,18.28
2023-04-18T01:45:26.218Z,18.28
2023-04-18T01:45:54.207Z,18.28
2023-04-18T01:46:08.227Z,18.28
2023-04-18T01:46:22.292Z,18.28
2023-04-18T01:46:36.372Z,18.28
2023-04-18T01:47:04.413Z,18.28
2023-04-18T01:47:18.465Z,18.28
2023-04-18T01:47:32.523Z,18.29
2023-04-18T01:47:46.581Z,18.27
2023-04-18T01:48:14.587Z,18.28
2023-04-18T01:48:28.574Z,18.28
2023-04-18T01:48:42.575Z,18.27
2023-04-18T01:48:56.573Z,18.27
2023-04-18T01:49:24.565Z,18.28
2023-04-18T01:49:38.568Z,18.27
2023-04-18T01:49:52.572Z,18.28
2023-04-18T01:50:06.562Z,18.27
2023-04-18T01:50:34.555Z,18.27
2023-04-18T01:50:48.540Z,18.28
2023-04-18T01:51:02.542Z,18.25
2023-04-18T01:51:16.535Z,18.28
2023-04-18T01:51:44.517Z,18.27
2023-04-18T01:51:58.520Z,18.25
2023-04-18T01:52:12.504Z,18.27
2023-04-18T01:52:26.500Z,18.27
2023-04-18T01:52:54.468Z,18.27
2023-04-18T01:53:08.458Z,18.28
2023-04-18T01:53:22.454Z,18.27
2023-04-18T01:53:36.431Z,18.28
2023-04-18T01:54:04.476Z,18.27
2023-04-18T01:54:18.468Z,18.27
2023-04-18T01:54:32.454Z,18.27
2023-04-18T01:54:46.455Z,18.28
2023-04-18T01:55:14.431Z,18.27
2023-04-18T01:55:28.419Z,18.28
2023-04-18T01:55:42.409Z,18.28
2023-04-18T01:55:56.408Z,18.27
2023-04-18T01:56:24.404Z,18.27
2023-04-18T01:56:38.403Z,18.27
2023-04-18T01:56:52.402Z,18.28
2023-04-18T01:57:06.398Z,18.27
2023-04-18T01:57:34.395Z,18.28
2023-04-18T01:57:48.401Z,18.28
2023-04-18T01:58:02.387Z,18.29
2023-04-18T01:58:16.382Z,18.28
2023-04-18T01:58:44.349Z,18.27
2023-04-18T01:58:58.358Z,18.27
2023-04-18T01:59:12.363Z,18.28
2023-04-18T01:59:26.361Z,18.28
2023-04-18T01:59:40.361Z,18.27
2023-04-18T01:59:54.346Z,18.25
2023-04-18T02:00:08.349Z,18.28
2023-04-18T02:00:22.360Z,18.28
2023-04-18T02:00:36.385Z,18.27
2023-04-18T02:01:04.438Z,18.25
2023-04-18T02:01:18.554Z,18.27
2023-04-18T02:01:32.694Z,18.25
2023-04-18T02:01:46.738Z,18.27
2023-04-18T02:02:14.808Z,18.27
2023-04-18T02:02:29.010Z,18.28
2023-04-18T02:02:43.396Z,18.25
2023-04-18T02:02:57.725Z,18.27
2023-04-18T02:03:25.947Z,18.28
2023-04-18T02:03:40.363Z,18.25
2023-04-18T02:03:54.626Z,18.27
2023-04-18T02:04:09.049Z,18.25
2023-04-18T02:04:37.067Z,18.27
2023-04-18T02:04:51.071Z,18.27
2023-04-18T02:05:05.062Z,18.25
2023-04-18T02:05:19.093Z,18.25
2023-04-18T02:05:47.075Z,18.25
2023-04-18T02:06:01.059Z,18.25
2023-04-18T02:06:15.057Z,18.28
2023-04-18T02:06:29.042Z,18.25
2023-04-18T02:06:57.025Z,18.27
2023-04-18T02:07:11.027Z,18.27
2023-04-18T02:07:25.043Z,18.27
2023-04-18T02:07:39.045Z,18.27
2023-04-18T02:08:06.991Z,18.27
2023-04-18T02:08:20.979Z,18.25
2023-04-18T02:08:34.966Z,18.25
2023-04-18T02:08:48.968Z,18.24
2023-04-18T02:09:16.978Z,18.27
2023-04-18T02:09:30.966Z,18.27
2023-04-18T02:09:44.944Z,18.25
2023-04-18T02:09:58.950Z,18.25
2023-04-18T02:10:26.937Z,18.24
2023-04-18T02:10:40.932Z,18.24
2023-04-18T02:10:54.936Z,18.25
2023-04-18T02:11:09.006Z,18.27
2023-04-18T02:11:36.974Z,18.25
2023-04-18T02:11:50.965Z,18.27
2023-04-18T02:12:04.990Z,18.25
2023-04-18T02:12:18.988Z,18.25
2023-04-18T02:12:32.981Z,18.25
2023-04-18T02:12:46.995Z,18.25
2023-04-18T02:13:01.014Z,18.25
2023-04-18T02:13:15.003Z,18.25
2023-04-18T02:13:29.004Z,18.25
2023-04-18T02:13:56.960Z,18.22
2023-04-18T02:14:11.015Z,18.25
2023-04-18T02:14:25.042Z,18.24
2023-04-18T02:14:39.042Z,18.25
2023-04-18T02:15:06.993Z,18.25
2023-04-18T02:15:21.020Z,18.25
2023-04-18T02:15:35.016Z,18.28
2023-04-18T02:15:49.015Z,18.25
2023-04-18T02:16:17.053Z,18.24
2023-04-18T02:16:31.129Z,18.25
2023-04-18T02:16:45.240Z,18.24
2023-04-18T02:16:59.242Z,18.25
2023-04-18T02:17:27.248Z,18.27
2023-04-18T02:17:41.283Z,18.25
2023-04-18T02:17:55.354Z,18.25
2023-04-18T02:18:09.395Z,18.24
2023-04-18T02:18:37.371Z,18.24
2023-04-18T02:18:51.380Z,18.24
2023-04-18T02:19:05.379Z,18.22
2023-04-18T02:19:19.376Z,18.24
2023-04-18T02:19:47.368Z,18.24
2023-04-18T02:20:01.382Z,18.24
2023-04-18T02:20:15.386Z,18.24
2023-04-18T02:20:29.378Z,18.22
2023-04-18T02:20:57.340Z,18.22
2023-04-18T02:21:11.343Z,18.22
2023-04-18T02:21:25.345Z,18.22
2023-04-18T02:21:39.337Z,18.21
2023-04-18T02:22:07.321Z,18.24
2023-04-18T02:22:21.326Z,18.22
2023-04-18T02:22:35.315Z,18.24
2023-04-18T02:22:49.309Z,18.24
2023-04-18T02:23:17.284Z,18.22
2023-04-18T02:23:31.282Z,18.22
2023-04-18T02:23:45.268Z,18.22
2023-04-18T02:23:59.272Z,18.21
2023-04-18T02:24:27.275Z,18.22
2023-04-18T02:24:41.263Z,18.22
2023-04-18T02:24:55.263Z,18.21
2023-04-18T02:25:09.255Z,18.21
2023-04-18T02:25:37.230Z,18.21
2023-04-18T02:25:51.219Z,18.21
2023-04-18T02:26:05.209Z,18.19
2023-04-18T02:26:19.216Z,18.21
2023-04-18T02:26:47.219Z,18.19
2023-04-18T02:27:01.220Z,18.19
2023-04-18T02:27:15.221Z,18.19
2023-04-18T02:27:29.217Z,18.19
2023-04-18T02:27:57.190Z,18.19
2023-04-18T02:28:11.196Z,18.19
2023-04-18T02:28:25.208Z,18.19
2023-04-18T02:28:39.316Z,18.18
2023-04-18T02:29:07.329Z,18.18
2023-04-18T02:29:21.308Z,18.19
2023-04-18T02:29:35.294Z,18.19
2023-04-18T02:29:49.267Z,18.19
2023-04-18T02:30:03.258Z,18.19
2023-04-18T02:30:17.245Z,18.22
2023-04-18T02:30:31.280Z,18.21
2023-04-18T02:30:45.272Z,18.19
2023-04-18T02:30:59.279Z,18.21
2023-04-18T02:31:27.285Z,18.21
2023-04-18T02:31:41.343Z,18.21
2023-04-18T02:31:55.440Z,18.21
2023-04-18T02:32:09.602Z,18.21
2023-04-18T02:32:37.729Z,18.21
2023-04-18T02:32:51.803Z,18.21
2023-04-18T02:33:05.955Z,18.19
2023-04-18T02:33:19.985Z,18.21
2023-04-18T02:33:47.997Z,18.21
2023-04-18T02:34:02.012Z,18.19
2023-04-18T02:34:16.160Z,18.21
2023-04-18T02:34:30.243Z,18.19
2023-04-18T02:34:58.232Z,18.19
2023-04-18T02:35:12.220Z,18.21
2023-04-18T02:35:26.229Z,18.19
2023-04-18T02:35:40.245Z,18.19
2023-04-18T02:36:08.214Z,18.19
2023-04-18T02:36:22.217Z,18.19
2023-04-18T02:36:36.228Z,18.21
2023-04-18T02:36:50.222Z,18.21
2023-04-18T02:37:18.185Z,18.18
2023-04-18T02:37:32.172Z,18.19
2023-04-18T02:37:46.185Z,18.19
2023-04-18T02:38:00.210Z,18.19
2023-04-18T02:38:28.194Z,18.18
2023-04-18T02:38:42.194Z,18.19
2023-04-18T02:38:56.202Z,18.19
2023-04-18T02:39:10.214Z,18.18
2023-04-18T02:39:38.223Z,18.18
2023-04-18T02:39:52.221Z,18.19
2023-04-18T02:40:06.242Z,18.18
2023-04-18T02:40:20.258Z,18.19
2023-04-18T02:40:48.236Z,18.19
2023-04-18T02:41:02.217Z,18.19
2023-04-18T02:41:16.214Z,18.21
2023-04-18T02:41:30.203Z,18.18
2023-04-18T02:41:58.205Z,18.18
2023-04-18T02:42:12.217Z,18.18
2023-04-18T02:42:26.207Z,18.18
2023-04-18T02:42:40.205Z,18.18
2023-04-18T02:43:08.194Z,18.18
2023-04-18T02:43:22.191Z,18.18
2023-04-18T02:43:36.215Z,18.18
2023-04-18T02:43:50.206Z,18.18
2023-04-18T02:44:18.188Z,18.18
2023-04-18T02:44:32.183Z,18.18
2023-04-18T02:44:46.180Z,18.19
2023-04-18T02:45:00.205Z,18.19
2023-04-18T02:45:28.221Z,18.19
2023-04-18T02:45:42.244Z,18.18
2023-04-18T02:45:56.284Z,18.19
2023-04-18T02:46:10.366Z,18.21
2023-04-18T02:46:38.364Z,18.21
2023-04-18T02:46:52.349Z,18.22
2023-04-18T02:47:06.336Z,18.21
2023-04-18T02:47:20.337Z,18.21
2023-04-18T02:47:55.395Z,18.19
2023-04-18T02:48:02.177Z,18.19
2023-04-18T02:48:16.342Z,18.21
2023-04-18T02:48:30.382Z,18.21
2023-04-18T02:48:58.419Z,18.19
2023-04-18T02:49:12.440Z,18.19
2023-04-18T02:49:26.434Z,18.21
2023-04-18T02:49:40.432Z,18.19
2023-04-18T02:50:08.402Z,18.19
2023-04-18T02:50:22.389Z,18.21
2023-04-18T02:50:36.409Z,18.19
2023-04-18T02:50:50.421Z,18.18
2023-04-18T02:51:18.410Z,18.19
2023-04-18T02:51:32.414Z,18.19
2023-04-18T02:51:46.415Z,18.19
2023-04-18T02:52:00.412Z,18.19
2023-04-18T02:52:14.413Z,18.18
2023-04-18T02:52:28.419Z,18.18
2023-04-18T02:52:42.413Z,18.18
2023-04-18T02:52:56.416Z,18.18
2023-04-18T02:53:10.405Z,18.18
2023-04-18T02:53:38.351Z,18.17
2023-04-18T02:53:52.350Z,18.18
2023-04-18T02:54:06.342Z,18.19
2023-04-18T02:54:20.327Z,18.19
2023-04-18T02:54:48.295Z,18.18
2023-04-18T02:55:02.324Z,18.18
2023-04-18T02:55:16.366Z,18.18
2023-04-18T02:55:30.359Z,18.18
2023-04-18T02:55:58.376Z,18.18
2023-04-18T02:56:12.375Z,18.19
2023-04-18T02:56:26.399Z,18.18
2023-04-18T02:56:40.406Z,18.19
2023-04-18T02:57:08.366Z,18.18
2023-04-18T02:57:22.358Z,18.19
2023-04-18T02:57:36.345Z,18.17
2023-04-18T02:57:50.332Z,18.19
2023-04-18T02:58:18.304Z,18.18
2023-04-18T02:58:32.296Z,18.18
2023-04-18T02:58:46.305Z,18.19
2023-04-18T02:59:00.295Z,18.18
2023-04-18T02:59:28.286Z,18.18
2023-04-18T02:59:42.279Z,18.18
2023-04-18T02:59:56.287Z,18.18
2023-04-18T03:00:10.311Z,18.18
2023-04-18T03:00:38.271Z,18.18
2023-04-18T03:00:52.260Z,18.18
2023-04-18T03:01:06.296Z,18.18
2023-04-18T03:01:20.372Z,18.17
2023-04-18T03:01:48.540Z,18.18
2023-04-18T03:02:02.650Z,18.17
2023-04-18T03:02:16.727Z,18.18
2023-04-18T03:02:30.856Z,18.17
2023-04-18T03:02:58.963Z,18.15
2023-04-18T03:03:13.120Z,18.17
2023-04-18T03:03:27.226Z,18.17
2023-04-18T03:03:41.253Z,18.17
2023-04-18T03:04:09.232Z,18.17
2023-04-18T03:04:23.253Z,18.17
2023-04-18T03:04:37.354Z,18.15
2023-04-18T03:04:51.380Z,18.17
2023-04-18T03:05:05.520Z,18.15
2023-04-18T03:05:19.727Z,18.15
2023-04-18T03:05:33.720Z,18.15
2023-04-18T03:05:47.705Z,18.15
2023-04-18T03:06:01.725Z,18.13
2023-04-18T03:06:29.690Z,18.17
2023-04-18T03:06:43.672Z,18.13
2023-04-18T03:06:57.687Z,18.15
2023-04-18T03:07:11.684Z,18.13
2023-04-18T03:07:39.676Z,18.13
2023-04-18T03:07:53.679Z,18.13
2023-04-18T03:08:07.699Z,18.15
2023-04-18T03:08:21.700Z,18.17
2023-04-18T03:08:49.687Z,18.15
2023-04-18T03:09:03.680Z,18.13
2023-04-18T03:09:17.678Z,18.17
2023-04-18T03:09:31.719Z,18.15
2023-04-18T03:09:59.704Z,18.15
2023-04-18T03:10:13.694Z,18.17
2023-04-18T03:10:27.684Z,18.15
2023-04-18T03:10:41.667Z,18.15
2023-04-18T03:11:09.636Z,18.17
2023-04-18T03:11:23.634Z,18.15
2023-04-18T03:11:37.628Z,18.15
2023-04-18T03:11:51.638Z,18.15
2023-04-18T03:12:19.650Z,18.15
2023-04-18T03:12:33.663Z,18.15
2023-04-18T03:12:47.698Z,18.15
2023-04-18T03:13:01.760Z,18.18
2023-04-18T03:13:29.727Z,18.17
2023-04-18T03:13:43.723Z,18.15
2023-04-18T03:13:57.708Z,18.15
2023-04-18T03:14:12.015Z,18.17
2023-04-18T03:14:40.136Z,18.15
2023-04-18T03:14:54.130Z,18.17
2023-04-18T03:15:08.120Z,18.15
2023-04-18T03:15:22.113Z,18.17
2023-04-18T03:15:50.126Z,18.15
2023-04-18T03:16:04.271Z,18.15
2023-04-18T03:16:18.359Z,18.15
2023-04-18T03:16:32.384Z,18.13
2023-04-18T03:17:00.362Z,18.13
2023-04-18T03:17:14.361Z,18.13
2023-04-18T03:17:28.380Z,18.13
2023-04-18T03:17:42.445Z,18.13
2023-04-18T03:18:10.436Z,18.13
2023-04-18T03:18:24.429Z,18.13
2023-04-18T03:18:38.449Z,18.13
2023-04-18T03:18:52.445Z,18.12
2023-04-18T03:19:20.429Z,18.13
2023-04-18T03:19:34.428Z,18.12
2023-04-18T03:19:48.427Z,18.12
2023-04-18T03:20:02.433Z,18.13
2023-04-18T03:20:30.415Z,18.12
2023-04-18T03:20:44.398Z,18.12
2023-04-18T03:20:58.488Z,18.12
2023-04-18T03:21:12.585Z,18.13
2023-04-18T03:21:40.549Z,18.12
2023-04-18T03:21:54.564Z,18.13
2023-04-18T03:22:08.555Z,18.13
2023-04-18T03:22:22.548Z,18.13
2023-04-18T03:22:36.550Z,18.15
2023-04-18T03:22:50.548Z,18.12
2023-04-18T03:23:04.531Z,18.13
2023-04-18T03:23:18.544Z,18.13
2023-04-18T03:23:32.523Z,18.12
2023-04-18T03:24:00.488Z,18.12
2023-04-18T03:24:14.808Z,18.12
2023-04-18T03:24:29.061Z,18.10
2023-04-18T03:24:43.072Z,18.12
2023-04-18T03:25:11.104Z,18.13
2023-04-18T03:25:25.108Z,18.12
2023-04-18T03:25:39.113Z,18.13
2023-04-18T03:25:53.132Z,18.13
2023-04-18T03:26:21.097Z,18.12
2023-04-18T03:26:35.102Z,18.10
2023-04-18T03:26:49.110Z,18.12
2023-04-18T03:27:03.129Z,18.12
2023-04-18T03:27:31.099Z,18.12
2023-04-18T03:27:45.110Z,18.12
2023-04-18T03:27:59.099Z,18.10
2023-04-18T03:28:13.088Z,18.12
2023-04-18T03:28:41.043Z,18.12
2023-04-18T03:28:55.034Z,18.12
2023-04-18T03:29:09.036Z,18.10
2023-04-18T03:29:23.048Z,18.12
2023-04-18T03:29:51.035Z,18.10
2023-04-18T03:30:05.024Z,18.10
2023-04-18T03:30:19.017Z,18.12
2023-04-18T03:30:33.016Z,18.12
2023-04-18T03:31:01.054Z,18.10
2023-04-18T03:31:15.074Z,18.10
2023-04-18T03:31:29.185Z,18.12
2023-04-18T03:31:43.332Z,18.10
2023-04-18T03:32:11.433Z,18.12
2023-04-18T03:32:25.453Z,18.10
2023-04-18T03:32:39.480Z,18.09
2023-04-18T03:32:53.633Z,18.07
2023-04-18T03:33:21.686Z,18.10
2023-04-18T03:33:35.679Z,18.10
2023-04-18T03:33:49.680Z,18.10
2023-04-18T03:34:03.669Z,18.09
2023-04-18T03:34:31.689Z,18.10
2023-04-18T03:34:45.673Z,18.07
2023-04-18T03:34:59.668Z,18.09
2023-04-18T03:35:13.709Z,18.09
2023-04-18T03:35:41.648Z,18.09
2023-04-18T03:35:55.676Z,18.09
2023-04-18T03:36:09.668Z,18.09
2023-04-18T03:36:23.654Z,18.09
2023-04-18T03:36:51.605Z,18.10
2023-04-18T03:37:05.658Z,18.09
2023-04-18T03:37:19.766Z,18.09
2023-04-18T03:37:33.753Z,18.07
2023-04-18T03:38:01.738Z,18.07
2023-04-18T03:38:15.761Z,18.07
2023-04-18T03:38:29.744Z,18.09
2023-04-18T03:38:43.743Z,18.09
2023-04-18T03:39:11.746Z,18.09
2023-04-18T03:39:25.729Z,18.07
2023-04-18T03:39:39.728Z,18.07
2023-04-18T03:39:53.710Z,18.09
2023-04-18T03:40:07.739Z,18.09
2023-04-18T03:40:21.760Z,18.09
2023-04-18T03:40:35.760Z,18.09
2023-04-18T03:40:49.768Z,18.07
2023-04-18T03:41:03.778Z,18.09
2023-04-18T03:41:31.770Z,18.09
2023-04-18T03:41:45.772Z,18.07
2023-04-18T03:41:59.770Z,18.09
2023-04-18T03:42:13.756Z,18.09
2023-04-18T03:42:41.756Z,18.07